Observation data for Goodlett on 05/26/2019      Previous  Date  Next       Current Mesonet Observations  Soil Data  Daily Summary Page  Observations in Plain Language
KGDS 260500Z 07008KT 22/20 A2993 RMK A01 T02150195  RH  093%=      5-min Rain = 0
KGDS 260505Z 07008KT 22/20 A2993 RMK A01 T02150195  RH  094%=      5-min Rain = 0
KGDS 260510Z 08007KT 21/20 A2993 RMK A01 T02140196  RH  094%=      5-min Rain = 0
KGDS 260515Z 08007KT 21/20 A2994 RMK A01 T02140196  RH  095%=      5-min Rain = 0
KGDS 260520Z 09007KT 21/20 A2994 RMK A01 T02140197  RH  095%=      5-min Rain = 0
KGDS 260525Z 10007KT 22/20 A2994 RMK A01 T02160199  RH  095%=      5-min Rain = 0
KGDS 260530Z 11008KT 22/20 A2993 RMK A01 T02210203  RH  095%=      5-min Rain = 0
KGDS 260535Z 11008KT 23/21 A2993 RMK A01 T02270206  RH  093%=      5-min Rain = 0
KGDS 260540Z 11009KT 23/21 A2993 RMK A01 T02280206  RH  093%=      5-min Rain = 0
KGDS 260545Z 11009KT 23/21 A2993 RMK A01 T02280205  RH  092%=      5-min Rain = 0
KGDS 260550Z 12010KT 23/21 A2993 RMK A01 T02280205  RH  092%=      5-min Rain = 0
KGDS 260555Z 12010KT 23/20 A2992 RMK A01 T02280204  RH  092%=      5-min Rain = 0
KGDS 260600Z 12012G17KT 23/20 A2992 RMK A01 T02290204  RH  091%=      5-min Rain = 0
KGDS 260605Z 12012G17KT 23/20 A2992 RMK A01 T02300203  RH  090%=      5-min Rain = 0
KGDS 260610Z 13012KT 23/20 A2992 RMK A01 T02310202  RH  089%=      5-min Rain = 0
KGDS 260615Z 13011KT 23/20 A2992 RMK A01 T02310202  RH  089%=      5-min Rain = 0
KGDS 260620Z 13012KT 23/20 A2992 RMK A01 T02310202  RH  088%=      5-min Rain = 0
KGDS 260625Z 13014KT 23/20 A2992 RMK A01 T02320201  RH  088%=      5-min Rain = 0
KGDS 260630Z 13014KT 23/20 A2992 RMK A01 T02330201  RH  087%=      5-min Rain = 0
KGDS 260635Z 13014KT 23/20 A2992 RMK A01 T02330201  RH  087%=      5-min Rain = 0
KGDS 260640Z 13014KT 23/20 A2992 RMK A01 T02340201  RH  086%=      5-min Rain = 0
KGDS 260645Z 13013KT 23/20 A2993 RMK A01 T02340200  RH  086%=      5-min Rain = 0
KGDS 260650Z 13014KT 23/20 A2993 RMK A01 T02340200  RH  086%=      5-min Rain = 0
KGDS 260655Z 13014KT 23/20 A2993 RMK A01 T02340200  RH  086%=      5-min Rain = 0
KGDS 260700Z 13012KT 23/20 A2993 RMK A01 T02320199  RH  087%=      5-min Rain = 0
KGDS 260705Z 13012KT 23/20 A2993 RMK A01 T02300199  RH  087%=      5-min Rain = 0
KGDS 260710Z 13012KT 23/20 A2993 RMK A01 T02300199  RH  088%=      5-min Rain = 0
KGDS 260715Z 13012KT 23/20 A2992 RMK A01 T02280199  RH  088%=      5-min Rain = 0
KGDS 260720Z 13012KT 23/20 A2992 RMK A01 T02280198  RH  088%=      5-min Rain = 0
KGDS 260725Z 13013G18KT 23/20 A2992 RMK A01 T02280198  RH  088%=      5-min Rain = 0
KGDS 260730Z 13014KT 23/20 A2992 RMK A01 T02290198  RH  088%=      5-min Rain = 0
KGDS 260735Z 13014G20KT 23/20 A2992 RMK A01 T02280198  RH  088%=      5-min Rain = 0
KGDS 260740Z 13014G20KT 23/20 A2991 RMK A01 T02280198  RH  088%=      5-min Rain = 0
KGDS 260745Z 14014KT 23/20 A2992 RMK A01 T02270197  RH  088%=      5-min Rain = 0
KGDS 260750Z 14014KT 23/20 A2992 RMK A01 T02270197  RH  088%=      5-min Rain = 0
KGDS 260755Z 14014KT 23/20 A2992 RMK A01 T02270197  RH  088%=      5-min Rain = 0
KGDS 260800Z 14014KT 23/20 A2992 RMK A01 T02270197  RH  088%=      5-min Rain = 0
KGDS 260805Z 14014KT 23/20 A2992 RMK A01 T02260197  RH  088%=      5-min Rain = 0
KGDS 260810Z 14013KT 23/20 A2992 RMK A01 T02260197  RH  088%=      5-min Rain = 0
KGDS 260815Z 14012G17KT 23/20 A2992 RMK A01 T02250197  RH  089%=      5-min Rain = 0
KGDS 260820Z 14011KT 22/20 A2992 RMK A01 T02240196  RH  089%=      5-min Rain = 0
KGDS 260825Z 14011KT 22/20 A2992 RMK A01 T02240196  RH  089%=      5-min Rain = 0
KGDS 260830Z 14012KT 22/20 A2992 RMK A01 T02230196  RH  089%=      5-min Rain = 0
KGDS 260835Z 14012G17KT 22/20 A2992 RMK A01 T02230196  RH  089%=      5-min Rain = 0
KGDS 260840Z 14011KT 22/20 A2992 RMK A01 T02220195  RH  090%=      5-min Rain = 0
KGDS 260845Z 14011KT 22/20 A2992 RMK A01 T02210195  RH  090%=      5-min Rain = 0
KGDS 260850Z 13011KT 22/20 A2992 RMK A01 T02210195  RH  090%=      5-min Rain = 0
KGDS 260855Z 13010KT 22/20 A2992 RMK A01 T02200195  RH  091%=      5-min Rain = 0
KGDS 260900Z 14010KT 22/19 A2992 RMK A01 T02190194  RH  091%=      5-min Rain = 0
KGDS 260905Z 14010KT 22/19 A2992 RMK A01 T02190194  RH  091%=      5-min Rain = 0
KGDS 260910Z 14010KT 22/19 A2993 RMK A01 T02180194  RH  091%=      5-min Rain = 0
KGDS 260915Z 14010G15KT 22/19 A2993 RMK A01 T02180194  RH  091%=      5-min Rain = 0
KGDS 260920Z 14010KT 22/19 A2993 RMK A01 T02180194  RH  091%=      5-min Rain = 0
KGDS 260925Z 14010KT 22/19 A2993 RMK A01 T02170193  RH  091%=      5-min Rain = 0
KGDS 260930Z 14010KT 22/19 A2993 RMK A01 T02160193  RH  091%=      5-min Rain = 0
KGDS 260935Z 14009KT 22/19 A2993 RMK A01 T02160193  RH  092%=      5-min Rain = 0
KGDS 260940Z 14010KT 22/19 A2993 RMK A01 T02160192  RH  091%=      5-min Rain = 0
KGDS 260945Z 14008KT 22/19 A2993 RMK A01 T02160192  RH  091%=      5-min Rain = 0
KGDS 260950Z 14008KT 21/19 A2993 RMK A01 T02140192  RH  092%=      5-min Rain = 0
KGDS 260955Z 13008KT 21/19 A2993 RMK A01 T02140192  RH  092%=      5-min Rain = 0
KGDS 261000Z 13008KT 21/19 A2994 RMK A01 T02130191  RH  093%=      5-min Rain = 0
KGDS 261005Z 13008KT 21/19 A2994 RMK A01 T02130191  RH  092%=      5-min Rain = 0
KGDS 261010Z 13007KT 21/19 A2994 RMK A01 T02120191  RH  093%=      5-min Rain = 0
KGDS 261015Z 13007KT 21/19 A2994 RMK A01 T02110190  RH  093%=      5-min Rain = 0
KGDS 261020Z 13007KT 21/19 A2994 RMK A01 T02100190  RH  093%=      5-min Rain = 0
KGDS 261025Z 13007KT 21/19 A2994 RMK A01 T02100190  RH  094%=      5-min Rain = 0
KGDS 261030Z 13007KT 21/19 A2994 RMK A01 T02090190  RH  094%=      5-min Rain = 0
KGDS 261035Z 13007KT 21/19 A2994 RMK A01 T02090190  RH  094%=      5-min Rain = 0
KGDS 261040Z 13007KT 21/19 A2994 RMK A01 T02080189  RH  094%=      5-min Rain = 0
KGDS 261045Z 13006KT 21/19 A2995 RMK A01 T02080189  RH  094%=      5-min Rain = 0
KGDS 261050Z 12007KT 21/19 A2995 RMK A01 T02070189  RH  094%=      5-min Rain = 0
KGDS 261055Z 12007KT 21/19 A2995 RMK A01 T02070188  RH  094%=      5-min Rain = 0
KGDS 261100Z 13006KT 21/19 A2996 RMK A01 T02070188  RH  094%=      5-min Rain = 0
KGDS 261105Z 13006KT 21/19 A2996 RMK A01 T02060188  RH  094%=      5-min Rain = 0
KGDS 261110Z 12006KT 21/19 A2996 RMK A01 T02050188  RH  095%=      5-min Rain = 0
KGDS 261115Z 12006KT 21/19 A2996 RMK A01 T02050187  RH  095%=      5-min Rain = 0
KGDS 261120Z 12006KT 21/19 A2996 RMK A01 T02060188  RH  095%=      5-min Rain = 0
KGDS 261125Z 12005KT 21/19 A2997 RMK A01 T02050188  RH  095%=      5-min Rain = 0
KGDS 261130Z 12006KT 21/19 A2997 RMK A01 T02050187  RH  095%=      5-min Rain = 0
KGDS 261135Z 12006KT 21/19 A2997 RMK A01 T02050188  RH  095%=      5-min Rain = 0
KGDS 261140Z 12006KT 21/19 A2997 RMK A01 T02050188  RH  095%=      5-min Rain = 0
KGDS 261145Z 12006KT 21/19 A2997 RMK A01 T02050188  RH  095%=      5-min Rain = 0
KGDS 261150Z 12006KT 21/19 A2997 RMK A01 T02050188  RH  095%=      5-min Rain = 0
KGDS 261155Z 12006KT 21/19 A2997 RMK A01 T02050188  RH  095%=      5-min Rain = 0
KGDS 261200Z 12007KT 21/19 A2997 RMK A01 T02060189  RH  095%=      5-min Rain = 0
KGDS 261205Z 13008KT 21/19 A2997 RMK A01 T02080189  RH  094%=      5-min Rain = 0
KGDS 261210Z 13009KT 21/19 A2998 RMK A01 T02100189  RH  093%=      5-min Rain = 0
KGDS 261215Z 14010KT 21/19 A2998 RMK A01 T02110188  RH  092%=      5-min Rain = 0
KGDS 261220Z 14010KT 21/19 A2998 RMK A01 T02120188  RH  091%=      5-min Rain = 0
KGDS 261225Z 13010KT 21/19 A2998 RMK A01 T02130189  RH  091%=      5-min Rain = 0
KGDS 261230Z 14009KT 21/19 A2999 RMK A01 T02140189  RH  090%=      5-min Rain = 0
KGDS 261235Z 14010KT 21/19 A2999 RMK A01 T02140188  RH  090%=      5-min Rain = 0
KGDS 261240Z 14012KT 21/19 A2999 RMK A01 T02140187  RH  089%=      5-min Rain = 0
KGDS 261245Z 14010KT 21/19 A30 RMK A01 T02140187  RH  090%=      5-min Rain = 0
KGDS 261250Z 15010G15KT 21/19 A30 RMK A01 T02140187  RH  089%=      5-min Rain = 0
KGDS 261255Z 15011KT 21/19 A30 RMK A01 T02140186  RH  089%=      5-min Rain = 0
KGDS 261300Z 14010KT 22/19 A30 RMK A01 T02150187  RH  089%=      5-min Rain = 0
KGDS 261305Z 14011KT 22/19 A30 RMK A01 T02150187  RH  088%=      5-min Rain = 0
KGDS 261310Z 15012G17KT 22/19 A30 RMK A01 T02160186  RH  088%=      5-min Rain = 0
KGDS 261315Z 15012G17KT 22/19 A30 RMK A01 T02160186  RH  088%=      5-min Rain = 0
KGDS 261320Z 15010G16KT 22/19 A3001 RMK A01 T02170187  RH  088%=      5-min Rain = 0
KGDS 261325Z 15012G17KT 22/19 A3001 RMK A01 T02180186  RH  087%=      5-min Rain = 0
KGDS 261330Z 15012KT 22/19 A3001 RMK A01 T02180186  RH  087%=      5-min Rain = 0
KGDS 261335Z 15012KT 22/19 A3001 RMK A01 T02190187  RH  086%=      5-min Rain = 0
KGDS 261340Z 15012KT 22/19 A3001 RMK A01 T02200187  RH  086%=      5-min Rain = 0
KGDS 261345Z 16013G20KT 22/19 A3001 RMK A01 T02220187  RH  085%=      5-min Rain = 0
KGDS 261350Z 16013KT 22/19 A3001 RMK A01 T02240187  RH  084%=      5-min Rain = 0
KGDS 261355Z 16015KT 22/19 A3001 RMK A01 T02240186  RH  084%=      5-min Rain = 0
KGDS 261400Z 16014KT 22/19 A3001 RMK A01 T02240186  RH  084%=      5-min Rain = 0
KGDS 261405Z 16014G20KT 22/19 A3001 RMK A01 T02240186  RH  083%=      5-min Rain = 0
KGDS 261410Z 16014G20KT 22/19 A3001 RMK A01 T02240186  RH  083%=      5-min Rain = 0
KGDS 261415Z 16015KT 22/19 A3001 RMK A01 T02240185  RH  083%=      5-min Rain = 0
KGDS 261420Z 16015KT 22/18 A3001 RMK A01 T02240184  RH  083%=      5-min Rain = 0
KGDS 261425Z 16015KT 22/18 A3001 RMK A01 T02230183  RH  082%=      5-min Rain = 0
KGDS 261430Z 17013G18KT 22/18 A3001 RMK A01 T02230184  RH  083%=      5-min Rain = 0
KGDS 261435Z 16013G20KT 22/18 A3001 RMK A01 T02230184  RH  083%=      5-min Rain = 0
KGDS 261440Z 17015G20KT 22/18 A30 RMK A01 T02230183  RH  082%=      5-min Rain = 0
KGDS 261445Z 16012KT 22/18 A30 RMK A01 T02240184  RH  083%=      5-min Rain = 0
KGDS 261450Z 17010G15KT 23/19 A3001 RMK A01 T02260186  RH  082%=      5-min Rain = 0
KGDS 261455Z 17014KT 23/18 A3001 RMK A01 T02270184  RH  081%=      5-min Rain = 0
KGDS 261500Z 17014KT 23/18 A3001 RMK A01 T02280184  RH  080%=      5-min Rain = 0
KGDS 261505Z 17013KT 23/19 A3001 RMK A01 T02300186  RH  081%=      5-min Rain = 0
KGDS 261510Z 17014G20KT 23/19 A3001 RMK A01 T02300185  RH  080%=      5-min Rain = 0
KGDS 261515Z 17015KT 23/19 A3001 RMK A01 T02320185  RH  079%=      5-min Rain = 0
KGDS 261520Z 17015KT 23/19 A3001 RMK A01 T02330185  RH  078%=      5-min Rain = 0
KGDS 261525Z 17016G22KT 23/18 A3001 RMK A01 T02330183  RH  078%=      5-min Rain = 0
KGDS 261530Z 17016G22KT 23/18 A3001 RMK A01 T02340183  RH  077%=      5-min Rain = 0
KGDS 261535Z 17014KT 24/18 A3001 RMK A01 T02350184  RH  077%=      5-min Rain = 0
KGDS 261540Z 16015KT 24/19 A3001 RMK A01 T02370185  RH  077%=      5-min Rain = 0
KGDS 261545Z 17016KT 24/18 A3001 RMK A01 T02380184  RH  076%=      5-min Rain = 0
KGDS 261550Z 17014G20KT 24/18 A3001 RMK A01 T02380184  RH  076%=      5-min Rain = 0
KGDS 261555Z 17015G22KT 24/18 A3001 RMK A01 T02390184  RH  075%=      5-min Rain = 0
KGDS 261600Z 17017KT 24/18 A30 RMK A01 T02380183  RH  075%=      5-min Rain = 0
KGDS 261605Z 17017KT 24/18 A30 RMK A01 T02380182  RH  075%=      5-min Rain = 0
KGDS 261610Z 17016KT 24/18 A30 RMK A01 T02370182  RH  075%=      5-min Rain = 0
KGDS 261615Z 17014KT 24/18 A30 RMK A01 T02390183  RH  075%=      5-min Rain = 0
KGDS 261620Z 17014G21KT 24/18 A30 RMK A01 T02420184  RH  074%=      5-min Rain = 0
KGDS 261625Z 17016G21KT 24/18 A30 RMK A01 T02430183  RH  073%=      5-min Rain = 0
KGDS 261630Z 16014G19KT 24/18 A2999 RMK A01 T02430184  RH  074%=      5-min Rain = 0
KGDS 261635Z 17016G21KT 24/18 A2999 RMK A01 T02440183  RH  073%=      5-min Rain = 0
KGDS 261640Z 16015G20KT 25/19 A2999 RMK A01 T02450185  RH  073%=      5-min Rain = 0
KGDS 261645Z 16015G20KT 24/18 A2999 RMK A01 T02440184  RH  073%=      5-min Rain = 0
KGDS 261650Z 16017G23KT 24/18 A2999 RMK A01 T02430182  RH  073%=      5-min Rain = 0
KGDS 261655Z 16016KT 24/18 A2999 RMK A01 T02440183  RH  072%=      5-min Rain = 0
KGDS 261700Z 16015KT 25/18 A2998 RMK A01 T02460183  RH  072%=      5-min Rain = 0
KGDS 261705Z 16016G21KT 25/18 A2998 RMK A01 T02490184  RH  071%=      5-min Rain = 0
KGDS 261710Z 17015G22KT 25/19 A2998 RMK A01 T02530185  RH  070%=      5-min Rain = 0
KGDS 261715Z 17015KT 26/19 A2998 RMK A01 T02560187  RH  069%=      5-min Rain = 0
KGDS 261720Z 16013KT 25/19 A2998 RMK A01 T02540185  RH  069%=      5-min Rain = 0
KGDS 261725Z 16013KT 26/19 A2999 RMK A01 T02550188  RH  070%=      5-min Rain = 0
KGDS 261730Z 16014KT 25/19 A2998 RMK A01 T02540186  RH  070%=      5-min Rain = 0
KGDS 261735Z 16014KT 25/19 A2999 RMK A01 T02540185  RH  069%=      5-min Rain = 0
KGDS 261740Z 16014KT 25/19 A2999 RMK A01 T02540185  RH  069%=      5-min Rain = 0
KGDS 261745Z 17014KT 26/19 A2999 RMK A01 T02550187  RH  070%=      5-min Rain = 0
KGDS 261750Z 17013KT 25/19 A2999 RMK A01 T02540186  RH  070%=      5-min Rain = 0
KGDS 261755Z 17013G18KT 25/19 A2999 RMK A01 T02530186  RH  070%=      5-min Rain = 0
KGDS 261800Z 17013G18KT 25/19 A2999 RMK A01 T02520185  RH  070%=      5-min Rain = 0
KGDS 261805Z 17012G18KT 25/19 A30 RMK A01 T02530186  RH  070%=      5-min Rain = 0
KGDS 261810Z 17012KT 25/19 A2999 RMK A01 T02540185  RH  069%=      5-min Rain = 0
KGDS 261815Z 17012KT 25/19 A2999 RMK A01 T02530185  RH  070%=      5-min Rain = 0
KGDS 261820Z 17010G15KT 25/19 A2999 RMK A01 T02540188  RH  071%=      5-min Rain = 0
KGDS 261825Z 16010G16KT 26/19 A2999 RMK A01 T02550189  RH  071%=      5-min Rain = 0
KGDS 261830Z 17011KT 26/19 A2998 RMK A01 T02550187  RH  070%=      5-min Rain = 0
KGDS 261835Z 16008KT 26/19 A2998 RMK A01 T02580192  RH  071%=      5-min Rain = 0
KGDS 261840Z 16011G16KT 26/19 A2998 RMK A01 T02560190  RH  071%=      5-min Rain = 0
KGDS 261845Z 16011KT 26/19 A2998 RMK A01 T02560187  RH  069%=      5-min Rain = 0
KGDS 261850Z 16010G16KT 26/19 A2998 RMK A01 T02570190  RH  070%=      5-min Rain = 0
KGDS 261855Z 15011G16KT 26/19 A2998 RMK A01 T02570188  RH  069%=      5-min Rain = 0
KGDS 261900Z 17013KT 26/19 A2998 RMK A01 T02560187  RH  070%=      5-min Rain = 0
KGDS 261905Z 16011KT 26/19 A2998 RMK A01 T02550189  RH  071%=      5-min Rain = 0
KGDS 261910Z 16011KT 26/19 A2998 RMK A01 T02550189  RH  071%=      5-min Rain = 0
KGDS 261915Z 16011G16KT 26/19 A2998 RMK A01 T02550189  RH  071%=      5-min Rain = 0
KGDS 261920Z 15012KT 26/19 A2997 RMK A01 T02570190  RH  070%=      5-min Rain = 0
KGDS 261925Z 15012KT 26/19 A2997 RMK A01 T02590190  RH  069%=      5-min Rain = 0
KGDS 261930Z 16012KT 26/19 A2997 RMK A01 T02600190  RH  069%=      5-min Rain = 0
KGDS 261935Z 16015G20KT 26/19 A2996 RMK A01 T02610189  RH  068%=      5-min Rain = 0
KGDS 261940Z 16015G21KT 26/19 A2996 RMK A01 T02630190  RH  068%=      5-min Rain = 0
KGDS 261945Z 16015G22KT 26/19 A2996 RMK A01 T02630188  RH  067%=      5-min Rain = 0
KGDS 261950Z 16015G20KT 26/19 A2996 RMK A01 T02640190  RH  067%=      5-min Rain = 0
KGDS 261955Z 16015G21KT 26/19 A2996 RMK A01 T02640190  RH  067%=      5-min Rain = 0
KGDS 262000Z 16015G20KT 27/19 A2995 RMK A01 T02650191  RH  067%=      5-min Rain = 0
KGDS 262005Z 16015G20KT 27/19 A2995 RMK A01 T02660190  RH  066%=      5-min Rain = 0
KGDS 262010Z 16015G20KT 27/19 A2995 RMK A01 T02670189  RH  066%=      5-min Rain = 0
KGDS 262015Z 16016G21KT 27/19 A2995 RMK A01 T02680189  RH  066%=      5-min Rain = 0
KGDS 262020Z 16015G20KT 27/19 A2995 RMK A01 T02690191  RH  066%=      5-min Rain = 0
KGDS 262025Z 16012G17KT 27/19 A2995 RMK A01 T02700192  RH  066%=      5-min Rain = 0
KGDS 262030Z 16013G18KT 27/19 A2995 RMK A01 T02690190  RH  066%=      5-min Rain = 0
KGDS 262035Z 16013KT 27/19 A2995 RMK A01 T02690191  RH  066%=      5-min Rain = 0
KGDS 262040Z 16013KT 27/19 A2995 RMK A01 T02670190  RH  066%=      5-min Rain = 0
KGDS 262045Z 16014G19KT 27/19 A2995 RMK A01 T02650190  RH  067%=      5-min Rain = 0
KGDS 262050Z 16013G18KT 27/19 A2995 RMK A01 T02660192  RH  067%=      5-min Rain = 0
KGDS 262055Z 16013G19KT 27/19 A2994 RMK A01 T02680192  RH  067%=      5-min Rain = 0
KGDS 262100Z 16010G15KT 27/20 A2994 RMK A01 T02670195  RH  068%=      5-min Rain = 0
KGDS 262105Z 17009G14KT 27/20 A2994 RMK A01 T02660197  RH  070%=      5-min Rain = 0
KGDS 262110Z 16012KT 27/20 A2994 RMK A01 T02660195  RH  069%=      5-min Rain = 0
KGDS 262115Z 17014G19KT 27/19 A2994 RMK A01 T02650192  RH  068%=      5-min Rain = 0
KGDS 262120Z 16011G16KT 26/19 A2994 RMK A01 T02640194  RH  069%=      5-min Rain = 0
KGDS 262125Z 17013G19KT 26/19 A2994 RMK A01 T02630194  RH  069%=      5-min Rain = 0
KGDS 262130Z 17016G21KT 26/19 A2993 RMK A01 T02640191  RH  068%=      5-min Rain = 0
KGDS 262135Z 17012G17KT 26/19 A2993 RMK A01 T02630193  RH  069%=      5-min Rain = 0
KGDS 262140Z 17013KT 26/19 A2993 RMK A01 T02620192  RH  069%=      5-min Rain = 0
KGDS 262145Z 16013KT 26/19 A2993 RMK A01 T02610192  RH  070%=      5-min Rain = 0
KGDS 262150Z 16010KT 26/19 A2993 RMK A01 T02590194  RH  071%=      5-min Rain = 0
KGDS 262155Z 16011G16KT 26/20 A2993 RMK A01 T02580195  RH  072%=      5-min Rain = 0
KGDS 262200Z 17011KT 26/20 A2993 RMK A01 T02580195  RH  072%=      5-min Rain = 0
KGDS 262205Z 17012KT 26/20 A2993 RMK A01 T02580195  RH  072%=      5-min Rain = 0
KGDS 262210Z 17011KT 26/19 A2993 RMK A01 T02580194  RH  072%=      5-min Rain = 0
KGDS 262215Z 17011KT 26/20 A2993 RMK A01 T02590195  RH  072%=      5-min Rain = 0
KGDS 262220Z 17011KT 26/20 A2993 RMK A01 T02590195  RH  072%=      5-min Rain = 0
KGDS 262225Z 16009G14KT 26/20 A2992 RMK A01 T02590198  RH  073%=      5-min Rain = 0
KGDS 262230Z 17011G16KT 26/20 A2992 RMK A01 T02590197  RH  072%=      5-min Rain = 0
KGDS 262235Z 17012G21KT 26/20 A2992 RMK A01 T02610197  RH  072%=      5-min Rain = 0
KGDS 262240Z 16012G18KT 26/20 A2992 RMK A01 T02640198  RH  071%=      5-min Rain = 0
KGDS 262245Z 16014KT 26/20 A2992 RMK A01 T02640197  RH  071%=      5-min Rain = 0
KGDS 262250Z 16012G17KT 26/20 A2991 RMK A01 T02640197  RH  071%=      5-min Rain = 0
KGDS 262255Z 16011G16KT 26/20 A2991 RMK A01 T02640198  RH  071%=      5-min Rain = 0
KGDS 262300Z 17012KT 26/20 A2991 RMK A01 T02640199  RH  071%=      5-min Rain = 0
KGDS 262305Z 17013G18KT 26/20 A2991 RMK A01 T02630197  RH  071%=      5-min Rain = 0
KGDS 262310Z 17014KT 26/20 A299 RMK A01 T02630196  RH  070%=      5-min Rain = 0
KGDS 262315Z 16014G19KT 26/20 A299 RMK A01 T02620196  RH  071%=      5-min Rain = 0
KGDS 262320Z 16012KT 26/20 A299 RMK A01 T02610197  RH  072%=      5-min Rain = 0
KGDS 262325Z 16012KT 26/20 A2989 RMK A01 T02610196  RH  072%=      5-min Rain = 0
KGDS 262330Z 15009KT 26/20 A2989 RMK A01 T02600199  RH  073%=      5-min Rain = 0
KGDS 262335Z 15010KT 26/20 A2989 RMK A01 T02600199  RH  073%=      5-min Rain = 0
KGDS 262340Z 15010G15KT 26/20 A2989 RMK A01 T02600199  RH  073%=      5-min Rain = 0
KGDS 262345Z 16011KT 26/20 A2989 RMK A01 T02600198  RH  072%=      5-min Rain = 0
KGDS 262350Z 16011KT 26/20 A2989 RMK A01 T02600198  RH  073%=      5-min Rain = 0
KGDS 262355Z 15009KT 26/20 A2988 RMK A01 T02590199  RH  073%=      5-min Rain = 0
KGDS 270000Z 15010KT 26/20 A2987 RMK A01 T02580199  RH  074%=      5-min Rain = 0
KGDS 270005Z 14010KT 26/20 A2987 RMK A01 T02580198  RH  074%=      5-min Rain = 0
KGDS 270010Z 14009KT 26/20 A2986 RMK A01 T02570197  RH  074%=      5-min Rain = 0
KGDS 270015Z 15009KT 26/20 A2987 RMK A01 T02560196  RH  073%=      5-min Rain = 0
KGDS 270020Z 15007KT 26/20 A2987 RMK A01 T02560197  RH  074%=      5-min Rain = 0
KGDS 270025Z 13008KT 26/20 A2986 RMK A01 T02560198  RH  074%=      5-min Rain = 0
KGDS 270030Z 13008KT 26/20 A2985 RMK A01 T02550198  RH  075%=      5-min Rain = 0
KGDS 270035Z 13009KT 25/20 A2985 RMK A01 T02540198  RH  076%=      5-min Rain = 0
KGDS 270040Z 13009KT 25/20 A2985 RMK A01 T02530199  RH  076%=      5-min Rain = 0
KGDS 270045Z 13010KT 25/20 A2985 RMK A01 T02540198  RH  075%=      5-min Rain = 0
KGDS 270050Z 13009KT 26/20 A2984 RMK A01 T02550199  RH  076%=      5-min Rain = 0
KGDS 270055Z 13009KT 25/20 A2985 RMK A01 T02530199  RH  076%=      5-min Rain = 0
KGDS 270100Z 14009KT 25/20 A2985 RMK A01 T02530198  RH  076%=      5-min Rain = 0
KGDS 270105Z 14010KT 25/20 A2985 RMK A01 T02530197  RH  075%=      5-min Rain = 0
KGDS 270110Z 13010KT 25/20 A2985 RMK A01 T02520198  RH  076%=      5-min Rain = 0
KGDS 270115Z 13009KT 25/20 A2984 RMK A01 T02520198  RH  076%=      5-min Rain = 0
KGDS 270120Z 13010KT 25/20 A2984 RMK A01 T02510197  RH  077%=      5-min Rain = 0
KGDS 270125Z 12009KT 25/20 A2984 RMK A01 T02490198  RH  078%=      5-min Rain = 0
KGDS 270130Z 12011KT 25/20 A2983 RMK A01 T02480197  RH  078%=      5-min Rain = 0
KGDS 270135Z 12012KT 25/20 A2982 RMK A01 T02470197  RH  078%=      5-min Rain = 0
KGDS 270140Z 12014KT 25/20 A2981 RMK A01 T02460195  RH  078%=      5-min Rain = 0
KGDS 270145Z 12015G22KT 25/19 A298 RMK A01 T02450194  RH  078%=      5-min Rain = 0
KGDS 270150Z 12017G22KT 25/19 A298 RMK A01 T02460191  RH  076%=      5-min Rain = 0
KGDS 270155Z 12016KT 25/19 A2979 RMK A01 T02450190  RH  075%=      5-min Rain = 0
KGDS 270200Z 12016KT 24/19 A2979 RMK A01 T02440189  RH  075%=      5-min Rain = 0
KGDS 270205Z 12015KT 24/19 A2979 RMK A01 T02440188  RH  075%=      5-min Rain = 0
KGDS 270210Z 12014G19KT 24/19 A2979 RMK A01 T02430188  RH  075%=      5-min Rain = 0
KGDS 270215Z 13013KT 24/19 A298 RMK A01 T02430188  RH  075%=      5-min Rain = 0
KGDS 270220Z 13012KT 24/19 A2981 RMK A01 T02430187  RH  075%=      5-min Rain = 0
KGDS 270225Z 15011G16KT 24/19 A2983 RMK A01 T02440187  RH  074%=      5-min Rain = 0
KGDS 270230Z 15012G17KT 25/19 A2983 RMK A01 T02460186  RH  073%=      5-min Rain = 0
KGDS 270235Z 15010G16KT 25/19 A2984 RMK A01 T02460186  RH  073%=      5-min Rain = 0
KGDS 270240Z 15010KT 24/19 A2984 RMK A01 T02440187  RH  074%=      5-min Rain = 0
KGDS 270245Z 15010KT 24/19 A2984 RMK A01 T02430187  RH  075%=      5-min Rain = 0
KGDS 270250Z 15010KT 24/19 A2984 RMK A01 T02420187  RH  075%=      5-min Rain = 0
KGDS 270255Z 15009KT 24/19 A2985 RMK A01 T02410187  RH  076%=      5-min Rain = 0
KGDS 270300Z 15007KT 24/19 A2985 RMK A01 T02390187  RH  077%=      5-min Rain = 0
KGDS 270305Z 15007KT 24/19 A2986 RMK A01 T02370187  RH  078%=      5-min Rain = 0
KGDS 270310Z 15006KT 24/19 A2986 RMK A01 T02360187  RH  078%=      5-min Rain = 0
KGDS 270315Z 15005KT 23/19 A2987 RMK A01 T02340187  RH  079%=      5-min Rain = 0
KGDS 270320Z 15005KT 23/19 A2987 RMK A01 T02320187  RH  080%=      5-min Rain = 0
KGDS 270325Z 15006KT 23/19 A2987 RMK A01 T02300187  RH  081%=      5-min Rain = 0
KGDS 270330Z 14006KT 23/19 A2987 RMK A01 T02280187  RH  082%=      5-min Rain = 0
KGDS 270335Z 14006KT 23/19 A2987 RMK A01 T02270188  RH  083%=      5-min Rain = 0
KGDS 270340Z 13006KT 23/19 A2987 RMK A01 T02270188  RH  083%=      5-min Rain = 0
KGDS 270345Z 13006KT 23/19 A2987 RMK A01 T02270188  RH  083%=      5-min Rain = 0
KGDS 270350Z 13007KT 23/19 A2987 RMK A01 T02270188  RH  083%=      5-min Rain = 0
KGDS 270355Z 13008KT 23/19 A2986 RMK A01 T02280188  RH  083%=      5-min Rain = 0
KGDS 270400Z 13009KT 23/19 A2986 RMK A01 T02280188  RH  083%=      5-min Rain = 0
KGDS 270405Z 13010KT 23/19 A2985 RMK A01 T02270188  RH  083%=      5-min Rain = 0
KGDS 270410Z 13010KT 23/19 A2985 RMK A01 T02260187  RH  083%=      5-min Rain = 0
KGDS 270415Z 13009KT 23/19 A2986 RMK A01 T02270187  RH  083%=      5-min Rain = 0
KGDS 270420Z 14009KT 23/19 A2986 RMK A01 T02290186  RH  081%=      5-min Rain = 0
KGDS 270425Z 14009KT 23/19 A2986 RMK A01 T02280186  RH  082%=      5-min Rain = 0
KGDS 270430Z 14009KT 23/19 A2986 RMK A01 T02270186  RH  082%=      5-min Rain = 0
KGDS 270435Z 14009KT 23/19 A2986 RMK A01 T02260185  RH  082%=      5-min Rain = 0
KGDS 270440Z 13009KT 23/19 A2985 RMK A01 T02260185  RH  082%=      5-min Rain = 0
KGDS 270445Z 13009KT 22/19 A2985 RMK A01 T02240185  RH  083%=      5-min Rain = 0
KGDS 270450Z 13009KT 22/19 A2985 RMK A01 T02210185  RH  084%=      5-min Rain = 0
KGDS 270455Z 13008KT 22/18 A2985 RMK A01 T02180184  RH  086%=      5-min Rain = 0

Page generated in 0.0488 seconds.